sensor_id;sensor_type;location;lat;lon;timestamp;pressure;altitude;pressure_sealevel;temperature;humidity
54628;BME280;40525;55.926;21.066;2023-06-26T00:01:34;101558.39;;;18.42;76.26
54628;BME280;40525;55.926;21.066;2023-06-26T00:04:23;101554.66;;;18.37;76.03
54628;BME280;40525;55.926;21.066;2023-06-26T00:07:04;101554.27;;;18.29;75.89
54628;BME280;40525;55.926;21.066;2023-06-26T00:09:46;101559.35;;;18.22;75.58
54628;BME280;40525;55.926;21.066;2023-06-26T00:12:26;101558.39;;;18.15;75.21
54628;BME280;40525;55.926;21.066;2023-06-26T00:15:07;101558.05;;;18.06;74.99
54628;BME280;40525;55.926;21.066;2023-06-26T00:17:48;101555.55;;;17.98;75.03
54628;BME280;40525;55.926;21.066;2023-06-26T00:20:29;101553.28;;;17.94;75.41
54628;BME280;40525;55.926;21.066;2023-06-26T00:23:10;101553.23;;;17.92;75.68
54628;BME280;40525;55.926;21.066;2023-06-26T00:25:51;101550.53;;;17.87;75.50
54628;BME280;40525;55.926;21.066;2023-06-26T00:28:31;101547.76;;;17.83;75.48
54628;BME280;40525;55.926;21.066;2023-06-26T00:31:11;101549.42;;;17.79;75.49
54628;BME280;40525;55.926;21.066;2023-06-26T00:33:51;101550.67;;;17.73;75.18
54628;BME280;40525;55.926;21.066;2023-06-26T00:36:31;101551.91;;;17.64;75.12
54628;BME280;40525;55.926;21.066;2023-06-26T00:39:12;101551.30;;;17.57;75.05
54628;BME280;40525;55.926;21.066;2023-06-26T00:41:52;101554.91;;;17.53;75.53
54628;BME280;40525;55.926;21.066;2023-06-26T00:44:35;101557.84;;;17.51;76.15
54628;BME280;40525;55.926;21.066;2023-06-26T00:47:16;101560.26;;;17.50;76.10
54628;BME280;40525;55.926;21.066;2023-06-26T00:49:57;101564.13;;;17.45;76.02
54628;BME280;40525;55.926;21.066;2023-06-26T00:52:38;101562.86;;;17.39;75.93
54628;BME280;40525;55.926;21.066;2023-06-26T00:55:18;101563.27;;;17.33;75.97
54628;BME280;40525;55.926;21.066;2023-06-26T00:58:01;101559.83;;;17.28;75.81
54628;BME280;40525;55.926;21.066;2023-06-26T01:00:41;101559.02;;;17.23;76.05
54628;BME280;40525;55.926;21.066;2023-06-26T01:03:25;101557.88;;;17.22;76.56
54628;BME280;40525;55.926;21.066;2023-06-26T01:06:06;101553.00;;;17.20;76.74
54628;BME280;40525;55.926;21.066;2023-06-26T01:08:47;101550.30;;;17.18;76.64
54628;BME280;40525;55.926;21.066;2023-06-26T01:11:28;101547.02;;;17.13;76.31
54628;BME280;40525;55.926;21.066;2023-06-26T01:14:09;101546.31;;;17.07;76.01
54628;BME280;40525;55.926;21.066;2023-06-26T01:16:50;101546.69;;;16.98;76.00
54628;BME280;40525;55.926;21.066;2023-06-26T01:19:33;101544.66;;;16.90;76.14
54628;BME280;40525;55.926;21.066;2023-06-26T01:28:53;101543.44;;;16.77;77.05
54628;BME280;40525;55.926;21.066;2023-06-26T01:31:38;101547.03;;;16.73;77.10
54628;BME280;40525;55.926;21.066;2023-06-26T01:34:20;101548.23;;;16.65;76.78
54628;BME280;40525;55.926;21.066;2023-06-26T01:37:00;101547.70;;;16.55;76.54
54628;BME280;40525;55.926;21.066;2023-06-26T01:39:41;101549.98;;;16.47;76.81
54628;BME280;40525;55.926;21.066;2023-06-26T01:42:27;101545.41;;;16.43;77.36
54628;BME280;40525;55.926;21.066;2023-06-26T01:45:15;101544.77;;;16.45;77.91
54628;BME280;40525;55.926;21.066;2023-06-26T01:48:09;101540.86;;;16.48;78.07
54628;BME280;40525;55.926;21.066;2023-06-26T01:50:48;101541.75;;;16.48;77.81
54628;BME280;40525;55.926;21.066;2023-06-26T01:53:41;101541.76;;;16.45;77.51
54628;BME280;40525;55.926;21.066;2023-06-26T01:56:18;101542.49;;;16.41;77.29
54628;BME280;40525;55.926;21.066;2023-06-26T01:59:07;101542.63;;;16.38;77.47
54628;BME280;40525;55.926;21.066;2023-06-26T02:01:41;101543.52;;;16.38;77.87
54628;BME280;40525;55.926;21.066;2023-06-26T02:04:28;101544.52;;;16.39;78.17
54628;BME280;40525;55.926;21.066;2023-06-26T02:07:02;101542.54;;;16.40;78.39
54628;BME280;40525;55.926;21.066;2023-06-26T02:09:50;101543.11;;;16.39;78.21
54628;BME280;40525;55.926;21.066;2023-06-26T02:12:23;101541.59;;;16.38;78.02
54628;BME280;40525;55.926;21.066;2023-06-26T02:15:09;101542.97;;;16.36;77.95
54628;BME280;40525;55.926;21.066;2023-06-26T02:17:43;101541.61;;;16.34;78.30
54628;BME280;40525;55.926;21.066;2023-06-26T02:20:29;101541.30;;;16.34;78.65
54628;BME280;40525;55.926;21.066;2023-06-26T02:23:03;101537.56;;;16.34;78.51
54628;BME280;40525;55.926;21.066;2023-06-26T02:25:50;101535.52;;;16.33;78.25
54628;BME280;40525;55.926;21.066;2023-06-26T02:28:24;101533.89;;;16.27;77.98
54628;BME280;40525;55.926;21.066;2023-06-26T02:31:10;101533.73;;;16.20;78.08
54628;BME280;40525;55.926;21.066;2023-06-26T02:33:44;101536.10;;;16.19;78.24
54628;BME280;40525;55.926;21.066;2023-06-26T02:36:31;101536.64;;;16.18;78.48
54628;BME280;40525;55.926;21.066;2023-06-26T02:39:05;101531.45;;;16.19;78.90
54628;BME280;40525;55.926;21.066;2023-06-26T02:41:51;101530.37;;;16.20;79.08
54628;BME280;40525;55.926;21.066;2023-06-26T02:44:25;101532.41;;;16.21;79.11
54628;BME280;40525;55.926;21.066;2023-06-26T02:47:12;101530.73;;;16.23;79.11
54628;BME280;40525;55.926;21.066;2023-06-26T02:49:46;101530.49;;;16.24;78.82
54628;BME280;40525;55.926;21.066;2023-06-26T02:52:35;101534.48;;;16.26;78.74
54628;BME280;40525;55.926;21.066;2023-06-26T02:55:09;101531.14;;;16.28;78.97
54628;BME280;40525;55.926;21.066;2023-06-26T02:57:57;101530.89;;;16.32;79.27
54628;BME280;40525;55.926;21.066;2023-06-26T03:00:32;101529.60;;;16.36;79.25
54628;BME280;40525;55.926;21.066;2023-06-26T03:03:22;101528.86;;;16.40;79.20
54628;BME280;40525;55.926;21.066;2023-06-26T03:06:19;101530.86;;;16.43;79.14
54628;BME280;40525;55.926;21.066;2023-06-26T03:09:13;101531.93;;;16.46;78.92
54628;BME280;40525;55.926;21.066;2023-06-26T03:11:47;101528.59;;;16.48;79.01
54628;BME280;40525;55.926;21.066;2023-06-26T03:14:35;101529.68;;;16.54;79.30
54628;BME280;40525;55.926;21.066;2023-06-26T03:17:19;101527.03;;;16.60;79.57
54628;BME280;40525;55.926;21.066;2023-06-26T03:20:00;101527.92;;;16.66;79.49
54628;BME280;40525;55.926;21.066;2023-06-26T03:22:51;101529.59;;;16.71;79.40
54628;BME280;40525;55.926;21.066;2023-06-26T03:25:30;101526.15;;;16.75;79.05
54628;BME280;40525;55.926;21.066;2023-06-26T03:28:21;101528.14;;;16.77;78.95
54628;BME280;40525;55.926;21.066;2023-06-26T03:31:00;101526.22;;;16.83;79.18
54628;BME280;40525;55.926;21.066;2023-06-26T03:33:40;101524.27;;;16.89;79.38
54628;BME280;40525;55.926;21.066;2023-06-26T03:36:20;101523.48;;;16.97;79.47
54628;BME280;40525;55.926;21.066;2023-06-26T03:39:02;101526.10;;;17.03;79.38
54628;BME280;40525;55.926;21.066;2023-06-26T03:41:42;101527.39;;;17.08;79.09
54628;BME280;40525;55.926;21.066;2023-06-26T03:44:22;101528.77;;;17.12;78.88
54628;BME280;40525;55.926;21.066;2023-06-26T03:47:02;101527.29;;;17.16;78.89
54628;BME280;40525;55.926;21.066;2023-06-26T03:49:43;101524.60;;;17.23;79.18
54628;BME280;40525;55.926;21.066;2023-06-26T03:52:22;101528.08;;;17.30;79.23
54628;BME280;40525;55.926;21.066;2023-06-26T03:55:04;101526.59;;;17.36;79.33
54628;BME280;40525;55.926;21.066;2023-06-26T03:57:43;101528.48;;;17.43;79.23
54628;BME280;40525;55.926;21.066;2023-06-26T04:00:23;101528.84;;;17.49;79.04
54628;BME280;40525;55.926;21.066;2023-06-26T04:03:03;101524.85;;;17.53;78.84
54628;BME280;40525;55.926;21.066;2023-06-26T04:05:43;101522.63;;;17.58;78.84
54628;BME280;40525;55.926;21.066;2023-06-26T04:08:24;101520.43;;;17.64;79.18
54628;BME280;40525;55.926;21.066;2023-06-26T04:11:08;101521.15;;;17.73;79.38
54628;BME280;40525;55.926;21.066;2023-06-26T04:13:48;101521.20;;;17.81;79.30
54628;BME280;40525;55.926;21.066;2023-06-26T04:16:29;101521.50;;;17.87;79.33
54628;BME280;40525;55.926;21.066;2023-06-26T04:19:09;101517.05;;;17.90;79.03
54628;BME280;40525;55.926;21.066;2023-06-26T04:21:56;101514.98;;;17.95;78.94
54628;BME280;40525;55.926;21.066;2023-06-26T04:24:36;101514.27;;;18.01;79.13
54628;BME280;40525;55.926;21.066;2023-06-26T04:27:17;101514.30;;;18.08;79.27
54628;BME280;40525;55.926;21.066;2023-06-26T04:29:57;101515.67;;;18.12;79.27
54628;BME280;40525;55.926;21.066;2023-06-26T04:32:39;101508.67;;;18.19;79.16
54628;BME280;40525;55.926;21.066;2023-06-26T04:35:19;101504.80;;;18.23;79.06
54628;BME280;40525;55.926;21.066;2023-06-26T04:38:06;101502.02;;;18.28;78.84
54628;BME280;40525;55.926;21.066;2023-06-26T04:40:48;101497.20;;;18.30;78.74
54628;BME280;40525;55.926;21.066;2023-06-26T04:43:28;101497.75;;;18.36;79.00
54628;BME280;40525;55.926;21.066;2023-06-26T04:46:08;101497.11;;;18.45;79.38
54628;BME280;40525;55.926;21.066;2023-06-26T04:48:48;101494.80;;;18.53;79.37
54628;BME280;40525;55.926;21.066;2023-06-26T04:51:31;101493.05;;;18.58;78.94
54628;BME280;40525;55.926;21.066;2023-06-26T04:54:11;101492.35;;;18.61;78.69
54628;BME280;40525;55.926;21.066;2023-06-26T04:56:51;101493.69;;;18.62;78.49
54628;BME280;40525;55.926;21.066;2023-06-26T04:59:31;101492.71;;;18.63;78.37
54628;BME280;40525;55.926;21.066;2023-06-26T05:02:11;101493.52;;;18.67;78.54
54628;BME280;40525;55.926;21.066;2023-06-26T05:05:01;101494.06;;;18.75;78.69
54628;BME280;40525;55.926;21.066;2023-06-26T05:07:56;101489.70;;;18.85;78.84
54628;BME280;40525;55.926;21.066;2023-06-26T05:10:30;101492.39;;;18.87;78.65
54628;BME280;40525;55.926;21.066;2023-06-26T05:13:17;101487.38;;;18.87;78.54
54628;BME280;40525;55.926;21.066;2023-06-26T05:15:53;101485.97;;;18.89;78.29
54628;BME280;40525;55.926;21.066;2023-06-26T05:18:39;101483.03;;;18.91;78.22
54628;BME280;40525;55.926;21.066;2023-06-26T05:21:25;101478.92;;;18.91;78.15
54628;BME280;40525;55.926;21.066;2023-06-26T05:24:13;101474.92;;;18.95;78.24
54628;BME280;40525;55.926;21.066;2023-06-26T05:26:56;101471.91;;;19.02;78.47
54628;BME280;40525;55.926;21.066;2023-06-26T05:29:36;101470.05;;;19.11;78.66
54628;BME280;40525;55.926;21.066;2023-06-26T05:32:17;101465.02;;;19.19;78.75
54628;BME280;40525;55.926;21.066;2023-06-26T05:34:59;101464.52;;;19.27;78.46
54628;BME280;40525;55.926;21.066;2023-06-26T05:37:41;101463.29;;;19.31;77.99
54628;BME280;40525;55.926;21.066;2023-06-26T05:40:24;101461.40;;;19.36;78.00
54628;BME280;40525;55.926;21.066;2023-06-26T05:43:04;101456.99;;;19.37;77.97
54628;BME280;40525;55.926;21.066;2023-06-26T05:45:44;101460.48;;;19.46;77.92
54628;BME280;40525;55.926;21.066;2023-06-26T05:48:24;101462.51;;;19.50;78.12
54628;BME280;40525;55.926;21.066;2023-06-26T05:51:04;101464.27;;;19.60;78.10
54628;BME280;40525;55.926;21.066;2023-06-26T05:53:44;101466.48;;;19.67;77.79
54628;BME280;40525;55.926;21.066;2023-06-26T05:56:28;101465.98;;;19.66;77.40
54628;BME280;40525;55.926;21.066;2023-06-26T05:59:11;101472.57;;;19.64;77.26
54628;BME280;40525;55.926;21.066;2023-06-26T06:01:51;101471.98;;;19.65;77.17
54628;BME280;40525;55.926;21.066;2023-06-26T06:04:38;101473.74;;;19.67;77.01
54628;BME280;40525;55.926;21.066;2023-06-26T06:07:34;101475.58;;;19.67;77.18
54628;BME280;40525;55.926;21.066;2023-06-26T06:10:08;101474.92;;;19.71;77.30
54628;BME280;40525;55.926;21.066;2023-06-26T06:12:55;101476.86;;;19.72;77.25
54628;BME280;40525;55.926;21.066;2023-06-26T06:15:29;101475.23;;;19.72;77.29
54628;BME280;40525;55.926;21.066;2023-06-26T06:18:17;101472.23;;;19.72;77.11
54628;BME280;40525;55.926;21.066;2023-06-26T06:20:50;101471.52;;;19.72;76.94
54628;BME280;40525;55.926;21.066;2023-06-26T06:23:38;101466.19;;;19.74;76.86
54628;BME280;40525;55.926;21.066;2023-06-26T06:26:12;101464.63;;;19.78;77.14
54628;BME280;40525;55.926;21.066;2023-06-26T06:29:00;101463.95;;;19.83;77.16
54628;BME280;40525;55.926;21.066;2023-06-26T06:31:40;101467.15;;;19.82;77.07
54628;BME280;40525;55.926;21.066;2023-06-26T06:34:20;101466.35;;;19.84;77.01
54628;BME280;40525;55.926;21.066;2023-06-26T06:37:02;101461.50;;;19.84;76.79
54628;BME280;40525;55.926;21.066;2023-06-26T06:39:43;101460.83;;;19.86;76.97
54628;BME280;40525;55.926;21.066;2023-06-26T06:42:23;101461.56;;;19.91;77.29
54628;BME280;40525;55.926;21.066;2023-06-26T06:45:05;101462.04;;;19.94;77.36
54628;BME280;40525;55.926;21.066;2023-06-26T06:47:46;101460.45;;;19.97;77.49
54628;BME280;40525;55.926;21.066;2023-06-26T06:50:26;101458.45;;;20.04;77.71
54628;BME280;40525;55.926;21.066;2023-06-26T06:53:07;101458.09;;;20.09;77.44
54628;BME280;40525;55.926;21.066;2023-06-26T06:55:47;101461.27;;;20.09;77.33
54628;BME280;40525;55.926;21.066;2023-06-26T06:58:27;101459.42;;;20.13;77.46
54628;BME280;40525;55.926;21.066;2023-06-26T07:01:09;101463.46;;;20.18;77.71
54628;BME280;40525;55.926;21.066;2023-06-26T07:03:56;101456.69;;;20.18;77.96
54628;BME280;40525;55.926;21.066;2023-06-26T07:06:51;101456.52;;;20.25;77.86
54628;BME280;40525;55.926;21.066;2023-06-26T07:09:25;101455.49;;;20.27;77.81
54628;BME280;40525;55.926;21.066;2023-06-26T07:12:13;101455.21;;;20.28;77.83
54628;BME280;40525;55.926;21.066;2023-06-26T07:14:48;101456.66;;;20.31;77.93
54628;BME280;40525;55.926;21.066;2023-06-26T07:17:35;101454.63;;;20.34;78.13
54628;BME280;40525;55.926;21.066;2023-06-26T07:20:11;101456.36;;;20.39;78.41
54628;BME280;40525;55.926;21.066;2023-06-26T07:23:00;101452.24;;;20.49;78.60
54628;BME280;40525;55.926;21.066;2023-06-26T07:25:33;101449.66;;;20.62;78.61
54628;BME280;40525;55.926;21.066;2023-06-26T07:28:22;101453.77;;;20.74;78.19
54628;BME280;40525;55.926;21.066;2023-06-26T07:30:55;101452.70;;;20.81;77.68
54628;BME280;40525;55.926;21.066;2023-06-26T07:33:43;101448.99;;;20.87;77.65
54628;BME280;40525;55.926;21.066;2023-06-26T07:36:24;101446.65;;;20.97;77.66
54628;BME280;40525;55.926;21.066;2023-06-26T07:39:06;101441.02;;;21.07;77.28
54628;BME280;40525;55.926;21.066;2023-06-26T07:41:53;101440.98;;;21.17;76.85
54628;BME280;40525;55.926;21.066;2023-06-26T07:44:34;101442.19;;;21.24;76.42
54628;BME280;40525;55.926;21.066;2023-06-26T07:47:14;101444.98;;;21.29;76.24
54628;BME280;40525;55.926;21.066;2023-06-26T07:49:54;101440.79;;;21.35;75.92
54628;BME280;40525;55.926;21.066;2023-06-26T07:52:34;101438.21;;;21.40;76.23
54628;BME280;40525;55.926;21.066;2023-06-26T07:55:14;101438.95;;;21.50;75.85
54628;BME280;40525;55.926;21.066;2023-06-26T07:57:54;101439.33;;;21.54;75.53
54628;BME280;40525;55.926;21.066;2023-06-26T08:00:35;101439.31;;;21.60;75.39
54628;BME280;40525;55.926;21.066;2023-06-26T08:03:21;101437.77;;;21.68;75.04
54628;BME280;40525;55.926;21.066;2023-06-26T08:06:16;101434.39;;;21.77;74.65
54628;BME280;40525;55.926;21.066;2023-06-26T08:08:56;101433.30;;;21.86;74.72
54628;BME280;40525;55.926;21.066;2023-06-26T08:11:38;101434.46;;;21.96;74.66
54628;BME280;40525;55.926;21.066;2023-06-26T08:14:18;101434.64;;;22.02;74.49
54628;BME280;40525;55.926;21.066;2023-06-26T08:16:57;101435.44;;;22.10;73.98
54628;BME280;40525;55.926;21.066;2023-06-26T08:19:39;101433.79;;;22.15;73.47
54628;BME280;40525;55.926;21.066;2023-06-26T08:22:25;101435.10;;;22.16;73.18
54628;BME280;40525;55.926;21.066;2023-06-26T08:25:06;101435.29;;;22.23;72.98
54628;BME280;40525;55.926;21.066;2023-06-26T08:27:45;101436.14;;;22.28;72.56
54628;BME280;40525;55.926;21.066;2023-06-26T08:30:26;101437.63;;;22.34;72.70
54628;BME280;40525;55.926;21.066;2023-06-26T08:33:05;101431.27;;;22.39;72.49
54628;BME280;40525;55.926;21.066;2023-06-26T08:35:50;101430.95;;;22.43;72.30
54628;BME280;40525;55.926;21.066;2023-06-26T08:38:31;101427.22;;;22.47;72.11
54628;BME280;40525;55.926;21.066;2023-06-26T08:41:11;101426.65;;;22.49;71.73
54628;BME280;40525;55.926;21.066;2023-06-26T08:43:50;101428.99;;;22.47;71.50
54628;BME280;40525;55.926;21.066;2023-06-26T08:46:32;101427.58;;;22.49;71.73
54628;BME280;40525;55.926;21.066;2023-06-26T08:49:29;101427.98;;;22.52;71.39
54628;BME280;40525;55.926;21.066;2023-06-26T08:52:27;101425.64;;;22.50;71.31
54628;BME280;40525;55.926;21.066;2023-06-26T08:55:10;101429.88;;;22.53;71.43
54628;BME280;40525;55.926;21.066;2023-06-26T08:57:54;101430.71;;;22.56;71.32
54628;BME280;40525;55.926;21.066;2023-06-26T09:00:36;101431.59;;;22.58;71.02
54628;BME280;40525;55.926;21.066;2023-06-26T09:03:24;101431.02;;;22.56;70.47
54628;BME280;40525;55.926;21.066;2023-06-26T09:06:18;101431.41;;;22.54;70.43
54628;BME280;40525;55.926;21.066;2023-06-26T09:08:52;101429.11;;;22.56;70.51
54628;BME280;40525;55.926;21.066;2023-06-26T09:11:39;101425.11;;;22.65;70.38
54628;BME280;40525;55.926;21.066;2023-06-26T09:14:13;101428.59;;;22.71;70.12
54628;BME280;40525;55.926;21.066;2023-06-26T09:17:02;101424.47;;;22.75;70.25
54628;BME280;40525;55.926;21.066;2023-06-26T09:19:37;101424.70;;;22.80;69.99
54628;BME280;40525;55.926;21.066;2023-06-26T09:22:24;101427.69;;;22.85;69.74
54628;BME280;40525;55.926;21.066;2023-06-26T09:24:58;101429.67;;;22.85;69.39
54628;BME280;40525;55.926;21.066;2023-06-26T09:27:46;101428.16;;;22.84;69.47
54628;BME280;40525;55.926;21.066;2023-06-26T09:30:22;101425.77;;;22.89;69.29
54628;BME280;40525;55.926;21.066;2023-06-26T09:33:20;101423.77;;;22.91;69.24
54628;BME280;40525;55.926;21.066;2023-06-26T09:35:55;101417.96;;;22.94;69.09
54628;BME280;40525;55.926;21.066;2023-06-26T09:38:42;101415.96;;;23.01;69.36
54628;BME280;40525;55.926;21.066;2023-06-26T09:41:17;101415.09;;;23.09;69.21
54628;BME280;40525;55.926;21.066;2023-06-26T09:44:05;101417.79;;;23.17;69.02
54628;BME280;40525;55.926;21.066;2023-06-26T09:46:39;101415.36;;;23.22;68.70
54628;BME280;40525;55.926;21.066;2023-06-26T09:49:26;101412.46;;;23.27;68.67
54628;BME280;40525;55.926;21.066;2023-06-26T09:52:02;101406.91;;;23.28;68.30
54628;BME280;40525;55.926;21.066;2023-06-26T09:54:48;101404.52;;;23.29;68.14
54628;BME280;40525;55.926;21.066;2023-06-26T09:57:22;101408.16;;;23.30;67.92
54628;BME280;40525;55.926;21.066;2023-06-26T10:00:10;101408.05;;;23.34;67.81
54628;BME280;40525;55.926;21.066;2023-06-26T10:02:45;101407.26;;;23.33;67.74
54628;BME280;40525;55.926;21.066;2023-06-26T10:05:33;101402.98;;;23.30;67.94
54628;BME280;40525;55.926;21.066;2023-06-26T10:08:08;101400.95;;;23.35;68.20
54628;BME280;40525;55.926;21.066;2023-06-26T10:10:57;101399.06;;;23.38;67.91
54628;BME280;40525;55.926;21.066;2023-06-26T10:13:35;101394.05;;;23.42;67.72
54628;BME280;40525;55.926;21.066;2023-06-26T10:16:27;101395.70;;;23.44;67.57
54628;BME280;40525;55.926;21.066;2023-06-26T10:19:04;101385.45;;;23.50;67.56
54628;BME280;40525;55.926;21.066;2023-06-26T10:21:53;101384.71;;;23.60;67.38
54628;BME280;40525;55.926;21.066;2023-06-26T10:24:29;101382.84;;;23.67;67.01
54628;BME280;40525;55.926;21.066;2023-06-26T10:27:20;101379.55;;;23.70;66.61
54628;BME280;40525;55.926;21.066;2023-06-26T10:29:56;101378.05;;;23.70;66.83
54628;BME280;40525;55.926;21.066;2023-06-26T10:32:43;101377.70;;;23.74;66.67
54628;BME280;40525;55.926;21.066;2023-06-26T10:35:18;101378.44;;;23.80;66.43
54628;BME280;40525;55.926;21.066;2023-06-26T10:38:07;101377.38;;;23.84;66.40
54628;BME280;40525;55.926;21.066;2023-06-26T10:40:47;101379.68;;;23.94;66.28
54628;BME280;40525;55.926;21.066;2023-06-26T10:43:34;101379.64;;;23.98;65.86
54628;BME280;40525;55.926;21.066;2023-06-26T10:46:09;101378.44;;;23.94;65.51
54628;BME280;40525;55.926;21.066;2023-06-26T10:48:58;101373.65;;;23.93;65.29
54628;BME280;40525;55.926;21.066;2023-06-26T10:51:33;101371.41;;;23.96;65.32
54628;BME280;40525;55.926;21.066;2023-06-26T10:54:19;101369.39;;;24.03;64.53
54628;BME280;40525;55.926;21.066;2023-06-26T10:56:54;101367.38;;;24.01;64.27
54628;BME280;40525;55.926;21.066;2023-06-26T10:59:41;101366.27;;;24.17;65.03
54628;BME280;40525;55.926;21.066;2023-06-26T11:02:15;101367.13;;;24.40;64.70
54628;BME280;40525;55.926;21.066;2023-06-26T11:05:05;101365.70;;;24.58;64.37
54628;BME280;40525;55.926;21.066;2023-06-26T11:08:05;101356.80;;;24.81;64.34
54628;BME280;40525;55.926;21.066;2023-06-26T11:10:59;101359.44;;;25.02;62.92
54628;BME280;40525;55.926;21.066;2023-06-26T11:13:34;101363.46;;;25.17;62.54
54628;BME280;40525;55.926;21.066;2023-06-26T11:16:25;101360.39;;;25.28;62.33
54628;BME280;40525;55.926;21.066;2023-06-26T11:19:06;101362.13;;;25.51;62.24
54628;BME280;40525;55.926;21.066;2023-06-26T11:21:46;101359.73;;;25.62;61.27
54628;BME280;40525;55.926;21.066;2023-06-26T11:24:26;101362.34;;;25.74;61.38
54628;BME280;40525;55.926;21.066;2023-06-26T11:27:08;101360.73;;;25.92;60.32
54628;BME280;40525;55.926;21.066;2023-06-26T11:29:48;101353.74;;;26.04;59.51
54628;BME280;40525;55.926;21.066;2023-06-26T11:32:28;101351.37;;;26.15;59.46
54628;BME280;40525;55.926;21.066;2023-06-26T11:35:08;101349.23;;;26.29;59.45
54628;BME280;40525;55.926;21.066;2023-06-26T11:37:49;101344.09;;;26.46;58.96
54628;BME280;40525;55.926;21.066;2023-06-26T11:40:30;101345.98;;;26.52;58.55
54628;BME280;40525;55.926;21.066;2023-06-26T11:43:11;101347.76;;;26.67;58.17
54628;BME280;40525;55.926;21.066;2023-06-26T11:45:51;101345.94;;;26.72;57.43
54628;BME280;40525;55.926;21.066;2023-06-26T11:48:31;101346.19;;;26.80;57.63
54628;BME280;40525;55.926;21.066;2023-06-26T11:51:15;101346.70;;;26.94;57.25
54628;BME280;40525;55.926;21.066;2023-06-26T11:53:55;101344.19;;;27.02;56.55
54628;BME280;40525;55.926;21.066;2023-06-26T11:56:35;101345.45;;;27.04;55.83
54628;BME280;40525;55.926;21.066;2023-06-26T11:59:15;101349.52;;;27.00;55.90
54628;BME280;40525;55.926;21.066;2023-06-26T12:01:55;101348.48;;;27.04;55.63
54628;BME280;40525;55.926;21.066;2023-06-26T12:04:41;101354.98;;;26.94;55.26
54628;BME280;40525;55.926;21.066;2023-06-26T12:07:21;101354.33;;;26.84;55.94
54628;BME280;40525;55.926;21.066;2023-06-26T12:10:03;101357.80;;;26.84;55.76
54628;BME280;40525;55.926;21.066;2023-06-26T12:12:44;101355.05;;;26.81;55.55
54628;BME280;40525;55.926;21.066;2023-06-26T12:15:24;101352.59;;;26.87;55.52
54628;BME280;40525;55.926;21.066;2023-06-26T12:18:08;101349.68;;;26.97;55.60
54628;BME280;40525;55.926;21.066;2023-06-26T12:20:54;101348.44;;;27.07;55.06
54628;BME280;40525;55.926;21.066;2023-06-26T12:23:41;101350.56;;;27.26;55.48
54628;BME280;40525;55.926;21.066;2023-06-26T12:26:21;101342.14;;;27.55;55.02
54628;BME280;40525;55.926;21.066;2023-06-26T12:29:07;101336.97;;;27.83;54.69
54628;BME280;40525;55.926;21.066;2023-06-26T12:31:52;101333.00;;;27.98;54.12
54628;BME280;40525;55.926;21.066;2023-06-26T12:34:34;101326.31;;;28.24;54.18
54628;BME280;40525;55.926;21.066;2023-06-26T12:37:16;101321.29;;;28.60;53.68
54628;BME280;40525;55.926;21.066;2023-06-26T12:39:57;101321.80;;;28.93;52.21
54628;BME280;40525;55.926;21.066;2023-06-26T12:42:39;101325.91;;;29.05;51.76
54628;BME280;40525;55.926;21.066;2023-06-26T12:45:19;101327.41;;;29.29;51.69
54628;BME280;40525;55.926;21.066;2023-06-26T12:48:11;101321.77;;;29.58;50.99
54628;BME280;40525;55.926;21.066;2023-06-26T12:50:51;101323.90;;;29.80;50.37
54628;BME280;40525;55.926;21.066;2023-06-26T12:53:31;101325.96;;;30.00;49.63
54628;BME280;40525;55.926;21.066;2023-06-26T12:56:11;101318.15;;;30.18;49.32
54628;BME280;40525;55.926;21.066;2023-06-26T12:58:53;101313.08;;;30.38;48.83
54628;BME280;40525;55.926;21.066;2023-06-26T13:01:33;101312.74;;;30.48;47.83
54628;BME280;40525;55.926;21.066;2023-06-26T13:04:13;101310.21;;;30.64;47.53
54628;BME280;40525;55.926;21.066;2023-06-26T13:06:53;101310.20;;;30.91;47.16
54628;BME280;40525;55.926;21.066;2023-06-26T13:09:34;101313.35;;;31.10;46.24
54628;BME280;40525;55.926;21.066;2023-06-26T13:12:14;101310.39;;;31.19;45.71
54628;BME280;40525;55.926;21.066;2023-06-26T13:14:54;101307.78;;;31.40;45.31
54628;BME280;40525;55.926;21.066;2023-06-26T13:17:34;101306.06;;;31.58;44.67
54628;BME280;40525;55.926;21.066;2023-06-26T13:20:14;101305.45;;;31.73;44.45
54628;BME280;40525;55.926;21.066;2023-06-26T13:22:55;101305.73;;;31.91;44.05
54628;BME280;40525;55.926;21.066;2023-06-26T13:25:35;101303.75;;;32.02;43.76
54628;BME280;40525;55.926;21.066;2023-06-26T13:28:16;101299.33;;;32.14;43.88
54628;BME280;40525;55.926;21.066;2023-06-26T13:30:56;101298.46;;;32.18;42.95
54628;BME280;40525;55.926;21.066;2023-06-26T13:33:37;101297.20;;;32.05;42.41
54628;BME280;40525;55.926;21.066;2023-06-26T13:36:19;101296.74;;;32.13;43.05
54628;BME280;40525;55.926;21.066;2023-06-26T13:38:59;101296.77;;;32.40;42.66
54628;BME280;40525;55.926;21.066;2023-06-26T13:41:40;101297.48;;;32.41;41.73
54628;BME280;40525;55.926;21.066;2023-06-26T13:44:20;101293.92;;;32.17;41.50
54628;BME280;40525;55.926;21.066;2023-06-26T13:47:16;101290.42;;;32.04;42.16
54628;BME280;40525;55.926;21.066;2023-06-26T13:49:56;101290.23;;;32.13;42.12
54628;BME280;40525;55.926;21.066;2023-06-26T13:52:36;101282.52;;;32.28;42.00
54628;BME280;40525;55.926;21.066;2023-06-26T13:55:17;101282.45;;;32.59;41.99
54628;BME280;40525;55.926;21.066;2023-06-26T13:57:57;101280.73;;;32.76;41.02
54628;BME280;40525;55.926;21.066;2023-06-26T14:00:38;101278.43;;;32.89;40.82
54628;BME280;40525;55.926;21.066;2023-06-26T14:03:23;101275.63;;;33.03;40.32